Main page
METAR-TAF:

METAR-TAF

Airports :

Kimble County Airport

Junction, Texas, United States

latitude: 30-30-39N, longitude: 099-45-59W, elevation: 1729 ft

Current weather observation

The report was made 47 minutes ago, at 21:51 UTC
Wind 12 mph from the North/Northeast
Temperature 70°F
Humidity 49%
Pressure 30.19 in. Hg
Visibility: 10 miles
Broken clouds at a height of 4200 ft
Overcast at a height of 5000 ft

METAR: KJCT 202151Z AUTO 02010KT 10SM BKN042 OVC050 21/10 A3019 RMK AO2 SLP201 T02110100

Time: 17:38 (22:38 UTC)

Forecast

The report was made 3 hours and 21 minutes ago, at 19:17 UTC
Forecast valid from 20 at 19 UTC to 21 at 18 UTC
Wind 7 mph from variable directions
Visibility: 6 miles
Broken clouds at a height of 7000 ft

TAF: KJCT 201917Z 2019/2118 VRB06KT P6SM BKN070

Weather observations and forecasts of more than 4000 airports (METAR and TAF reports).

The available stations are represented by yellow and red dots on the map.

Hover mouse over dot to see the name of the station.

Then click to see weather observations and forecasts.

To change the map : click on the green buttons with a black cross to zoom in, on the green button with a dash to zoom out, or on the green arrows for adjacent maps.


METAR-TAF: